sensor_id;sensor_type;location;lat;lon;timestamp;temperature;humidity
360;DHT22;168;48.872;9.226;2023-02-18T00:00:25;13.70;92.50
360;DHT22;168;48.872;9.226;2023-02-18T00:02:52;13.70;92.50
360;DHT22;168;48.872;9.226;2023-02-18T00:05:21;13.60;92.60
360;DHT22;168;48.872;9.226;2023-02-18T00:07:49;13.60;92.80
360;DHT22;168;48.872;9.226;2023-02-18T00:10:20;13.50;93.10
360;DHT22;168;48.872;9.226;2023-02-18T00:12:48;13.60;92.90
360;DHT22;168;48.872;9.226;2023-02-18T00:15:17;13.50;93.10
360;DHT22;168;48.872;9.226;2023-02-18T00:17:45;13.60;93.10
360;DHT22;168;48.872;9.226;2023-02-18T00:20:12;13.60;92.90
360;DHT22;168;48.872;9.226;2023-02-18T00:22:39;13.60;93.00
360;DHT22;168;48.872;9.226;2023-02-18T00:25:07;13.70;92.90
360;DHT22;168;48.872;9.226;2023-02-18T00:27:34;13.70;93.00
360;DHT22;168;48.872;9.226;2023-02-18T00:30:02;13.70;92.90
360;DHT22;168;48.872;9.226;2023-02-18T00:32:32;13.60;93.00
360;DHT22;168;48.872;9.226;2023-02-18T00:35:00;13.60;93.10
360;DHT22;168;48.872;9.226;2023-02-18T00:37:27;13.60;93.20
360;DHT22;168;48.872;9.226;2023-02-18T00:39:55;13.60;93.10
360;DHT22;168;48.872;9.226;2023-02-18T00:42:22;13.60;93.10
360;DHT22;168;48.872;9.226;2023-02-18T00:44:49;13.70;92.80
360;DHT22;168;48.872;9.226;2023-02-18T00:47:17;13.70;92.70
360;DHT22;168;48.872;9.226;2023-02-18T00:49:45;13.60;92.80
360;DHT22;168;48.872;9.226;2023-02-18T00:52:13;13.60;92.80
360;DHT22;168;48.872;9.226;2023-02-18T00:54:40;13.60;92.90
360;DHT22;168;48.872;9.226;2023-02-18T00:57:07;13.60;93.00
360;DHT22;168;48.872;9.226;2023-02-18T00:59:35;13.70;92.70
360;DHT22;168;48.872;9.226;2023-02-18T01:02:02;13.70;92.50
360;DHT22;168;48.872;9.226;2023-02-18T01:04:29;13.80;92.20
360;DHT22;168;48.872;9.226;2023-02-18T01:06:58;13.80;91.90
360;DHT22;168;48.872;9.226;2023-02-18T01:09:25;13.70;91.90
360;DHT22;168;48.872;9.226;2023-02-18T01:11:53;13.70;92.10
360;DHT22;168;48.872;9.226;2023-02-18T01:14:20;13.70;92.30
360;DHT22;168;48.872;9.226;2023-02-18T01:16:47;13.70;92.20
360;DHT22;168;48.872;9.226;2023-02-18T01:19:15;13.70;92.20
360;DHT22;168;48.872;9.226;2023-02-18T01:21:42;13.70;92.10
360;DHT22;168;48.872;9.226;2023-02-18T01:24:11;13.80;91.80
360;DHT22;168;48.872;9.226;2023-02-18T01:26:38;13.70;92.10
360;DHT22;168;48.872;9.226;2023-02-18T01:29:06;13.70;92.50
360;DHT22;168;48.872;9.226;2023-02-18T01:31:33;13.70;92.50
360;DHT22;168;48.872;9.226;2023-02-18T01:34:00;13.60;92.80
360;DHT22;168;48.872;9.226;2023-02-18T01:36:28;13.60;92.90
360;DHT22;168;48.872;9.226;2023-02-18T01:38:55;13.60;92.90
360;DHT22;168;48.872;9.226;2023-02-18T01:41:24;13.50;93.20
360;DHT22;168;48.872;9.226;2023-02-18T01:44:10;13.50;93.30
360;DHT22;168;48.872;9.226;2023-02-18T01:46:37;13.60;93.20
360;DHT22;168;48.872;9.226;2023-02-18T01:49:05;13.50;93.30
360;DHT22;168;48.872;9.226;2023-02-18T01:51:35;13.50;93.60
360;DHT22;168;48.872;9.226;2023-02-18T01:54:06;13.50;93.50
360;DHT22;168;48.872;9.226;2023-02-18T01:56:40;13.40;93.60
360;DHT22;168;48.872;9.226;2023-02-18T01:59:10;13.40;93.50
360;DHT22;168;48.872;9.226;2023-02-18T02:01:39;13.50;93.40
360;DHT22;168;48.872;9.226;2023-02-18T02:04:08;13.60;93.10
360;DHT22;168;48.872;9.226;2023-02-18T02:06:35;13.60;93.00
360;DHT22;168;48.872;9.226;2023-02-18T02:09:05;13.60;92.90
360;DHT22;168;48.872;9.226;2023-02-18T02:14:46;13.50;93.20
360;DHT22;168;48.872;9.226;2023-02-18T02:17:23;13.40;93.60
360;DHT22;168;48.872;9.226;2023-02-18T02:23:59;13.40;93.50
360;DHT22;168;48.872;9.226;2023-02-18T02:30:03;13.40;93.60
360;DHT22;168;48.872;9.226;2023-02-18T02:33:19;13.40;93.80
360;DHT22;168;48.872;9.226;2023-02-18T02:35:55;13.40;93.40
360;DHT22;168;48.872;9.226;2023-02-18T02:38:30;13.40;93.80
360;DHT22;168;48.872;9.226;2023-02-18T02:41:11;13.40;93.40
360;DHT22;168;48.872;9.226;2023-02-18T02:43:45;13.40;93.40
360;DHT22;168;48.872;9.226;2023-02-18T02:46:20;13.40;93.50
360;DHT22;168;48.872;9.226;2023-02-18T02:48:57;13.40;93.20
360;DHT22;168;48.872;9.226;2023-02-18T02:51:29;13.40;93.40
360;DHT22;168;48.872;9.226;2023-02-18T02:54:10;13.40;93.30
360;DHT22;168;48.872;9.226;2023-02-18T02:56:38;13.40;93.40
360;DHT22;168;48.872;9.226;2023-02-18T02:59:08;13.40;93.20
360;DHT22;168;48.872;9.226;2023-02-18T03:01:52;13.50;93.00
360;DHT22;168;48.872;9.226;2023-02-18T03:04:46;13.50;92.90
360;DHT22;168;48.872;9.226;2023-02-18T03:10:28;13.50;92.50
360;DHT22;168;48.872;9.226;2023-02-18T03:13:06;13.50;92.70
360;DHT22;168;48.872;9.226;2023-02-18T03:15:42;13.50;92.40
360;DHT22;168;48.872;9.226;2023-02-18T03:18:16;13.50;92.30
360;DHT22;168;48.872;9.226;2023-02-18T03:20:50;13.50;92.40
360;DHT22;168;48.872;9.226;2023-02-18T03:23:23;13.40;92.70
360;DHT22;168;48.872;9.226;2023-02-18T03:25:54;13.40;92.60
360;DHT22;168;48.872;9.226;2023-02-18T03:28:23;13.40;92.70
360;DHT22;168;48.872;9.226;2023-02-18T03:30:56;13.30;93.10
360;DHT22;168;48.872;9.226;2023-02-18T03:33:27;13.20;93.20
360;DHT22;168;48.872;9.226;2023-02-18T03:35:56;13.30;93.40
360;DHT22;168;48.872;9.226;2023-02-18T03:38:28;13.30;93.30
360;DHT22;168;48.872;9.226;2023-02-18T03:40:57;13.30;93.30
360;DHT22;168;48.872;9.226;2023-02-18T03:43:25;13.20;93.40
360;DHT22;168;48.872;9.226;2023-02-18T03:45:53;13.20;93.30
360;DHT22;168;48.872;9.226;2023-02-18T03:48:20;13.20;93.20
360;DHT22;168;48.872;9.226;2023-02-18T03:50:48;13.20;93.20
360;DHT22;168;48.872;9.226;2023-02-18T03:53:15;13.20;92.90
360;DHT22;168;48.872;9.226;2023-02-18T03:55:44;13.10;93.20
360;DHT22;168;48.872;9.226;2023-02-18T03:58:11;13.00;93.50
360;DHT22;168;48.872;9.226;2023-02-18T04:00:38;13.00;93.80
360;DHT22;168;48.872;9.226;2023-02-18T04:03:06;12.90;94.00
360;DHT22;168;48.872;9.226;2023-02-18T04:05:33;12.80;94.20
360;DHT22;168;48.872;9.226;2023-02-18T04:08:01;12.80;94.60
360;DHT22;168;48.872;9.226;2023-02-18T04:10:28;12.70;94.80
360;DHT22;168;48.872;9.226;2023-02-18T04:12:57;12.70;94.80
360;DHT22;168;48.872;9.226;2023-02-18T04:15:24;12.70;94.80
360;DHT22;168;48.872;9.226;2023-02-18T04:17:51;12.70;94.70
360;DHT22;168;48.872;9.226;2023-02-18T04:20:19;12.70;94.50
360;DHT22;168;48.872;9.226;2023-02-18T04:22:47;12.70;94.50
360;DHT22;168;48.872;9.226;2023-02-18T04:25:15;12.60;94.60
360;DHT22;168;48.872;9.226;2023-02-18T04:27:42;12.60;94.50
360;DHT22;168;48.872;9.226;2023-02-18T04:30:11;12.60;94.40
360;DHT22;168;48.872;9.226;2023-02-18T04:32:39;12.50;94.40
360;DHT22;168;48.872;9.226;2023-02-18T04:35:07;12.50;94.60
360;DHT22;168;48.872;9.226;2023-02-18T04:37:34;12.50;94.40
360;DHT22;168;48.872;9.226;2023-02-18T04:40:01;12.40;94.60
360;DHT22;168;48.872;9.226;2023-02-18T04:42:29;12.50;94.70
360;DHT22;168;48.872;9.226;2023-02-18T04:44:56;12.40;94.80
360;DHT22;168;48.872;9.226;2023-02-18T04:47:25;12.50;94.80
360;DHT22;168;48.872;9.226;2023-02-18T04:49:52;12.50;94.70
360;DHT22;168;48.872;9.226;2023-02-18T04:52:20;12.50;94.70
360;DHT22;168;48.872;9.226;2023-02-18T04:54:47;12.60;94.60
360;DHT22;168;48.872;9.226;2023-02-18T04:57:15;12.60;94.40
360;DHT22;168;48.872;9.226;2023-02-18T04:59:42;12.60;94.30
360;DHT22;168;48.872;9.226;2023-02-18T05:02:10;12.60;94.40
360;DHT22;168;48.872;9.226;2023-02-18T05:04:38;12.50;94.40
360;DHT22;168;48.872;9.226;2023-02-18T05:07:06;12.60;94.10
360;DHT22;168;48.872;9.226;2023-02-18T05:09:33;12.60;94.00
360;DHT22;168;48.872;9.226;2023-02-18T05:12:00;12.50;94.10
360;DHT22;168;48.872;9.226;2023-02-18T05:14:28;12.50;94.30
360;DHT22;168;48.872;9.226;2023-02-18T05:16:55;12.40;94.40
360;DHT22;168;48.872;9.226;2023-02-18T05:19:22;12.30;94.50
360;DHT22;168;48.872;9.226;2023-02-18T05:21:51;12.30;94.50
360;DHT22;168;48.872;9.226;2023-02-18T05:24:18;12.30;94.60
360;DHT22;168;48.872;9.226;2023-02-18T05:26:46;12.30;94.70
360;DHT22;168;48.872;9.226;2023-02-18T05:29:13;12.30;94.70
360;DHT22;168;48.872;9.226;2023-02-18T05:31:40;12.40;94.50
360;DHT22;168;48.872;9.226;2023-02-18T05:34:07;12.40;94.40
360;DHT22;168;48.872;9.226;2023-02-18T05:36:35;12.40;94.30
360;DHT22;168;48.872;9.226;2023-02-18T05:39:03;12.40;94.30
360;DHT22;168;48.872;9.226;2023-02-18T05:41:31;12.30;94.40
360;DHT22;168;48.872;9.226;2023-02-18T05:43:58;12.30;94.60
360;DHT22;168;48.872;9.226;2023-02-18T05:46:43;12.20;95.00
360;DHT22;168;48.872;9.226;2023-02-18T05:49:11;12.20;95.10
360;DHT22;168;48.872;9.226;2023-02-18T05:51:38;12.10;95.10
360;DHT22;168;48.872;9.226;2023-02-18T05:54:07;12.00;95.60
360;DHT22;168;48.872;9.226;2023-02-18T05:56:35;12.00;95.80
360;DHT22;168;48.872;9.226;2023-02-18T05:59:02;12.00;95.90
360;DHT22;168;48.872;9.226;2023-02-18T06:01:30;12.00;96.00
360;DHT22;168;48.872;9.226;2023-02-18T06:03:57;12.10;95.90
360;DHT22;168;48.872;9.226;2023-02-18T06:06:24;12.00;96.10
360;DHT22;168;48.872;9.226;2023-02-18T06:08:52;11.90;96.40
360;DHT22;168;48.872;9.226;2023-02-18T06:11:20;12.00;96.40
360;DHT22;168;48.872;9.226;2023-02-18T06:13:48;12.00;96.40
360;DHT22;168;48.872;9.226;2023-02-18T06:16:15;12.00;96.40
360;DHT22;168;48.872;9.226;2023-02-18T06:18:42;12.10;96.40
360;DHT22;168;48.872;9.226;2023-02-18T06:21:10;12.10;96.10
360;DHT22;168;48.872;9.226;2023-02-18T06:23:37;12.20;96.10
360;DHT22;168;48.872;9.226;2023-02-18T06:26:04;12.10;96.00
360;DHT22;168;48.872;9.226;2023-02-18T06:28:33;12.10;96.10
360;DHT22;168;48.872;9.226;2023-02-18T06:31:01;12.10;96.30
360;DHT22;168;48.872;9.226;2023-02-18T06:33:28;12.10;96.40
360;DHT22;168;48.872;9.226;2023-02-18T06:35:57;12.10;96.40
360;DHT22;168;48.872;9.226;2023-02-18T06:38:26;12.10;96.30
360;DHT22;168;48.872;9.226;2023-02-18T06:40:53;12.10;96.40
360;DHT22;168;48.872;9.226;2023-02-18T06:43:21;12.10;96.50
360;DHT22;168;48.872;9.226;2023-02-18T06:48:54;12.20;96.40
360;DHT22;168;48.872;9.226;2023-02-18T06:51:24;12.20;96.30
360;DHT22;168;48.872;9.226;2023-02-18T06:54:04;12.20;96.20
360;DHT22;168;48.872;9.226;2023-02-18T06:56:32;12.20;96.40
360;DHT22;168;48.872;9.226;2023-02-18T06:59:02;12.30;96.30
360;DHT22;168;48.872;9.226;2023-02-18T07:02:03;12.30;96.30
360;DHT22;168;48.872;9.226;2023-02-18T07:04:54;12.30;96.40
360;DHT22;168;48.872;9.226;2023-02-18T07:07:27;12.40;96.20
360;DHT22;168;48.872;9.226;2023-02-18T07:10:02;12.40;96.00
360;DHT22;168;48.872;9.226;2023-02-18T07:12:38;12.50;95.80
360;DHT22;168;48.872;9.226;2023-02-18T07:15:08;12.50;95.90
360;DHT22;168;48.872;9.226;2023-02-18T07:18:04;12.50;96.00
360;DHT22;168;48.872;9.226;2023-02-18T07:20:55;12.60;95.70
360;DHT22;168;48.872;9.226;2023-02-18T07:23:22;12.70;95.50
360;DHT22;168;48.872;9.226;2023-02-18T07:25:49;12.70;95.40
360;DHT22;168;48.872;9.226;2023-02-18T07:28:17;12.70;95.50
360;DHT22;168;48.872;9.226;2023-02-18T07:30:45;12.70;95.30
360;DHT22;168;48.872;9.226;2023-02-18T07:33:14;12.70;95.30
360;DHT22;168;48.872;9.226;2023-02-18T07:35:41;12.80;95.20
360;DHT22;168;48.872;9.226;2023-02-18T07:38:08;12.90;95.10
360;DHT22;168;48.872;9.226;2023-02-18T07:40:35;12.90;95.10
360;DHT22;168;48.872;9.226;2023-02-18T07:43:03;13.00;95.00
360;DHT22;168;48.872;9.226;2023-02-18T07:45:30;13.10;94.40
360;DHT22;168;48.872;9.226;2023-02-18T07:47:58;13.10;94.20
360;DHT22;168;48.872;9.226;2023-02-18T07:50:26;13.10;94.20
360;DHT22;168;48.872;9.226;2023-02-18T07:52:54;13.20;94.10
360;DHT22;168;48.872;9.226;2023-02-18T07:55:21;13.20;93.60
360;DHT22;168;48.872;9.226;2023-02-18T07:57:49;13.30;93.50
360;DHT22;168;48.872;9.226;2023-02-18T08:00:27;13.40;93.20
360;DHT22;168;48.872;9.226;2023-02-18T08:02:54;13.40;93.10
360;DHT22;168;48.872;9.226;2023-02-18T08:05:23;13.40;93.00
360;DHT22;168;48.872;9.226;2023-02-18T08:07:51;13.50;92.60
360;DHT22;168;48.872;9.226;2023-02-18T08:10:19;13.50;92.30
360;DHT22;168;48.872;9.226;2023-02-18T08:12:46;13.50;92.40
360;DHT22;168;48.872;9.226;2023-02-18T08:15:14;13.50;92.50
360;DHT22;168;48.872;9.226;2023-02-18T08:17:41;13.60;92.10
360;DHT22;168;48.872;9.226;2023-02-18T08:20:09;13.60;91.90
360;DHT22;168;48.872;9.226;2023-02-18T08:22:37;13.60;92.00
360;DHT22;168;48.872;9.226;2023-02-18T08:25:06;13.60;92.10
360;DHT22;168;48.872;9.226;2023-02-18T08:27:34;13.70;92.00
360;DHT22;168;48.872;9.226;2023-02-18T08:30:06;13.80;91.20
360;DHT22;168;48.872;9.226;2023-02-18T08:32:35;13.90;90.90
360;DHT22;168;48.872;9.226;2023-02-18T08:35:06;14.00;90.50
360;DHT22;168;48.872;9.226;2023-02-18T08:37:33;14.10;89.30
360;DHT22;168;48.872;9.226;2023-02-18T08:40:07;14.10;88.80
360;DHT22;168;48.872;9.226;2023-02-18T08:42:35;14.20;88.40
360;DHT22;168;48.872;9.226;2023-02-18T08:45:03;14.20;88.50
360;DHT22;168;48.872;9.226;2023-02-18T08:47:30;14.30;87.70
360;DHT22;168;48.872;9.226;2023-02-18T08:50:00;14.40;87.40
360;DHT22;168;48.872;9.226;2023-02-18T08:52:30;14.40;87.70
360;DHT22;168;48.872;9.226;2023-02-18T08:54:57;14.40;87.40
360;DHT22;168;48.872;9.226;2023-02-18T08:57:29;14.40;87.20
360;DHT22;168;48.872;9.226;2023-02-18T08:59:59;14.50;86.90
360;DHT22;168;48.872;9.226;2023-02-18T09:02:27;14.60;87.00
360;DHT22;168;48.872;9.226;2023-02-18T09:04:57;14.60;86.90
360;DHT22;168;48.872;9.226;2023-02-18T09:07:24;14.60;86.60
360;DHT22;168;48.872;9.226;2023-02-18T09:09:52;14.70;86.50
360;DHT22;168;48.872;9.226;2023-02-18T09:12:22;14.70;86.70
360;DHT22;168;48.872;9.226;2023-02-18T09:14:53;14.90;85.80
360;DHT22;168;48.872;9.226;2023-02-18T09:17:20;14.80;85.60
360;DHT22;168;48.872;9.226;2023-02-18T09:19:51;14.80;85.80
360;DHT22;168;48.872;9.226;2023-02-18T09:22:18;14.80;85.90
360;DHT22;168;48.872;9.226;2023-02-18T09:24:46;14.80;86.30
360;DHT22;168;48.872;9.226;2023-02-18T09:27:13;14.80;85.80
360;DHT22;168;48.872;9.226;2023-02-18T09:29:41;14.90;85.80
360;DHT22;168;48.872;9.226;2023-02-18T09:32:10;14.90;85.70
360;DHT22;168;48.872;9.226;2023-02-18T09:34:37;14.90;85.20
360;DHT22;168;48.872;9.226;2023-02-18T09:37:05;15.00;85.30
360;DHT22;168;48.872;9.226;2023-02-18T09:39:32;15.10;85.10
360;DHT22;168;48.872;9.226;2023-02-18T09:42:02;15.10;84.90
360;DHT22;168;48.872;9.226;2023-02-18T09:44:33;15.30;84.30
360;DHT22;168;48.872;9.226;2023-02-18T09:47:03;15.40;83.70
360;DHT22;168;48.872;9.226;2023-02-18T09:49:34;15.50;83.30
360;DHT22;168;48.872;9.226;2023-02-18T09:52:06;15.60;83.20
360;DHT22;168;48.872;9.226;2023-02-18T09:54:36;15.80;82.30
360;DHT22;168;48.872;9.226;2023-02-18T09:57:04;15.80;81.80
360;DHT22;168;48.872;9.226;2023-02-18T09:59:32;15.80;81.50
360;DHT22;168;48.872;9.226;2023-02-18T10:02:00;15.70;81.80
360;DHT22;168;48.872;9.226;2023-02-18T10:04:33;15.70;81.70
360;DHT22;168;48.872;9.226;2023-02-18T10:07:03;15.70;82.20
360;DHT22;168;48.872;9.226;2023-02-18T10:09:34;15.60;81.80
360;DHT22;168;48.872;9.226;2023-02-18T10:12:07;15.60;82.50
360;DHT22;168;48.872;9.226;2023-02-18T10:14:39;15.70;82.30
360;DHT22;168;48.872;9.226;2023-02-18T10:17:08;15.70;82.30
360;DHT22;168;48.872;9.226;2023-02-18T10:19:40;15.70;82.00
360;DHT22;168;48.872;9.226;2023-02-18T10:22:11;15.60;81.60
360;DHT22;168;48.872;9.226;2023-02-18T10:24:40;15.60;82.00
360;DHT22;168;48.872;9.226;2023-02-18T10:27:09;15.60;81.90
360;DHT22;168;48.872;9.226;2023-02-18T10:29:41;15.50;81.70
360;DHT22;168;48.872;9.226;2023-02-18T10:32:18;15.40;81.90
360;DHT22;168;48.872;9.226;2023-02-18T10:34:52;15.40;82.00
360;DHT22;168;48.872;9.226;2023-02-18T10:37:30;15.40;81.20
360;DHT22;168;48.872;9.226;2023-02-18T10:40:08;15.30;80.90
360;DHT22;168;48.872;9.226;2023-02-18T10:42:45;15.20;81.10
360;DHT22;168;48.872;9.226;2023-02-18T10:45:21;15.30;81.50
360;DHT22;168;48.872;9.226;2023-02-18T10:48:01;15.40;80.80
360;DHT22;168;48.872;9.226;2023-02-18T10:50:37;15.40;80.70
360;DHT22;168;48.872;9.226;2023-02-18T10:53:11;15.40;81.30
360;DHT22;168;48.872;9.226;2023-02-18T10:55:42;15.60;81.10
360;DHT22;168;48.872;9.226;2023-02-18T10:58:25;15.70;81.10
360;DHT22;168;48.872;9.226;2023-02-18T11:00:53;15.80;80.90
360;DHT22;168;48.872;9.226;2023-02-18T11:03:22;16.00;79.60
360;DHT22;168;48.872;9.226;2023-02-18T11:05:54;16.00;79.60
360;DHT22;168;48.872;9.226;2023-02-18T11:08:24;16.00;79.70
360;DHT22;168;48.872;9.226;2023-02-18T11:10:52;16.10;79.70
360;DHT22;168;48.872;9.226;2023-02-18T11:13:25;16.10;79.70
360;DHT22;168;48.872;9.226;2023-02-18T11:15:59;16.20;79.20
360;DHT22;168;48.872;9.226;2023-02-18T11:18:33;16.30;78.90
360;DHT22;168;48.872;9.226;2023-02-18T11:21:05;16.30;78.70
360;DHT22;168;48.872;9.226;2023-02-18T11:23:45;16.30;78.50
360;DHT22;168;48.872;9.226;2023-02-18T11:26:15;16.10;78.50
360;DHT22;168;48.872;9.226;2023-02-18T11:28:45;15.80;79.20
360;DHT22;168;48.872;9.226;2023-02-18T11:31:20;15.80;79.50
360;DHT22;168;48.872;9.226;2023-02-18T11:33:53;15.80;78.50
360;DHT22;168;48.872;9.226;2023-02-18T11:36:28;15.70;78.30
360;DHT22;168;48.872;9.226;2023-02-18T11:39:00;15.70;78.60
360;DHT22;168;48.872;9.226;2023-02-18T11:41:32;15.60;78.80
360;DHT22;168;48.872;9.226;2023-02-18T11:44:16;15.70;79.10
360;DHT22;168;48.872;9.226;2023-02-18T11:46:55;15.80;78.80
360;DHT22;168;48.872;9.226;2023-02-18T11:49:24;15.70;79.20
360;DHT22;168;48.872;9.226;2023-02-18T11:51:52;15.60;78.80
360;DHT22;168;48.872;9.226;2023-02-18T11:54:23;15.60;78.90
360;DHT22;168;48.872;9.226;2023-02-18T11:56:56;15.50;79.40
360;DHT22;168;48.872;9.226;2023-02-18T11:59:24;15.40;79.70
360;DHT22;168;48.872;9.226;2023-02-18T12:01:54;15.30;80.30
360;DHT22;168;48.872;9.226;2023-02-18T12:04:29;15.40;80.40
360;DHT22;168;48.872;9.226;2023-02-18T12:07:10;15.30;79.20
360;DHT22;168;48.872;9.226;2023-02-18T12:09:46;15.30;79.70
360;DHT22;168;48.872;9.226;2023-02-18T12:12:20;15.30;80.00
360;DHT22;168;48.872;9.226;2023-02-18T12:14:51;15.20;80.60
360;DHT22;168;48.872;9.226;2023-02-18T12:17:32;15.10;81.10
360;DHT22;168;48.872;9.226;2023-02-18T12:20:25;15.20;81.70
360;DHT22;168;48.872;9.226;2023-02-18T12:23:05;15.30;81.10
360;DHT22;168;48.872;9.226;2023-02-18T12:25:41;15.20;80.60
360;DHT22;168;48.872;9.226;2023-02-18T12:28:27;15.20;80.40
360;DHT22;168;48.872;9.226;2023-02-18T12:31:27;15.10;81.10
360;DHT22;168;48.872;9.226;2023-02-18T12:34:11;15.10;80.80
360;DHT22;168;48.872;9.226;2023-02-18T12:36:50;15.10;80.10
360;DHT22;168;48.872;9.226;2023-02-18T12:39:31;15.00;80.00
360;DHT22;168;48.872;9.226;2023-02-18T12:42:23;15.00;80.00
360;DHT22;168;48.872;9.226;2023-02-18T12:45:04;15.10;80.60
360;DHT22;168;48.872;9.226;2023-02-18T12:47:45;15.00;80.80
360;DHT22;168;48.872;9.226;2023-02-18T12:50:54;14.90;80.90
360;DHT22;168;48.872;9.226;2023-02-18T12:53:42;14.90;80.80
360;DHT22;168;48.872;9.226;2023-02-18T12:56:38;14.80;81.50
360;DHT22;168;48.872;9.226;2023-02-18T12:59:12;14.90;81.90
360;DHT22;168;48.872;9.226;2023-02-18T13:01:50;14.90;81.90
360;DHT22;168;48.872;9.226;2023-02-18T13:04:51;14.90;81.30
360;DHT22;168;48.872;9.226;2023-02-18T13:07:33;14.90;81.50
360;DHT22;168;48.872;9.226;2023-02-18T13:10:23;15.00;81.70
360;DHT22;168;48.872;9.226;2023-02-18T13:13:00;15.10;81.00
360;DHT22;168;48.872;9.226;2023-02-18T13:15:35;14.90;81.40
360;DHT22;168;48.872;9.226;2023-02-18T13:18:11;14.80;82.00
360;DHT22;168;48.872;9.226;2023-02-18T13:20:42;14.90;81.90
360;DHT22;168;48.872;9.226;2023-02-18T13:23:16;14.90;81.60
360;DHT22;168;48.872;9.226;2023-02-18T13:25:45;14.90;81.90
360;DHT22;168;48.872;9.226;2023-02-18T13:28:21;14.90;81.50
360;DHT22;168;48.872;9.226;2023-02-18T13:31:00;14.90;81.80
360;DHT22;168;48.872;9.226;2023-02-18T13:33:36;14.90;81.60
360;DHT22;168;48.872;9.226;2023-02-18T13:36:12;15.00;81.50
360;DHT22;168;48.872;9.226;2023-02-18T13:39:03;15.00;81.10
360;DHT22;168;48.872;9.226;2023-02-18T13:41:35;14.90;81.10
360;DHT22;168;48.872;9.226;2023-02-18T13:44:14;15.00;81.40
360;DHT22;168;48.872;9.226;2023-02-18T13:46:57;15.10;81.40
360;DHT22;168;48.872;9.226;2023-02-18T13:49:31;15.10;80.80
360;DHT22;168;48.872;9.226;2023-02-18T13:52:00;15.20;80.40
360;DHT22;168;48.872;9.226;2023-02-18T13:54:31;15.20;80.40
360;DHT22;168;48.872;9.226;2023-02-18T13:57:01;15.20;80.70
360;DHT22;168;48.872;9.226;2023-02-18T13:59:35;15.30;79.90
360;DHT22;168;48.872;9.226;2023-02-18T14:04:51;15.50;79.90
360;DHT22;168;48.872;9.226;2023-02-18T14:07:43;15.70;78.60
360;DHT22;168;48.872;9.226;2023-02-18T14:10:26;15.70;78.50
360;DHT22;168;48.872;9.226;2023-02-18T14:13:16;15.80;78.40
360;DHT22;168;48.872;9.226;2023-02-18T14:15:57;15.80;78.40
360;DHT22;168;48.872;9.226;2023-02-18T14:21:35;15.80;77.70
360;DHT22;168;48.872;9.226;2023-02-18T14:24:04;15.80;78.40
360;DHT22;168;48.872;9.226;2023-02-18T14:26:36;15.70;78.40
360;DHT22;168;48.872;9.226;2023-02-18T14:29:13;15.60;79.10
360;DHT22;168;48.872;9.226;2023-02-18T14:31:54;15.50;79.30
360;DHT22;168;48.872;9.226;2023-02-18T14:44:06;15.40;81.70
360;DHT22;168;48.872;9.226;2023-02-18T14:46:47;15.30;83.80
360;DHT22;168;48.872;9.226;2023-02-18T14:49:34;15.20;84.90
360;DHT22;168;48.872;9.226;2023-02-18T14:52:03;15.20;85.00
360;DHT22;168;48.872;9.226;2023-02-18T14:54:31;15.20;85.30
360;DHT22;168;48.872;9.226;2023-02-18T14:57:00;15.20;85.20
360;DHT22;168;48.872;9.226;2023-02-18T14:59:33;15.20;84.70
360;DHT22;168;48.872;9.226;2023-02-18T15:02:00;15.10;84.40
360;DHT22;168;48.872;9.226;2023-02-18T15:04:29;15.10;84.00
360;DHT22;168;48.872;9.226;2023-02-18T15:06:58;15.00;83.80
360;DHT22;168;48.872;9.226;2023-02-18T15:09:25;14.90;84.90
360;DHT22;168;48.872;9.226;2023-02-18T15:11:56;14.90;85.60
360;DHT22;168;48.872;9.226;2023-02-18T15:14:28;14.80;85.20
360;DHT22;168;48.872;9.226;2023-02-18T15:16:56;14.70;84.70
360;DHT22;168;48.872;9.226;2023-02-18T15:19:28;14.70;84.90
360;DHT22;168;48.872;9.226;2023-02-18T15:21:57;14.60;84.70
360;DHT22;168;48.872;9.226;2023-02-18T15:24:26;14.40;85.30
360;DHT22;168;48.872;9.226;2023-02-18T15:26:58;14.40;85.90
360;DHT22;168;48.872;9.226;2023-02-18T15:29:27;14.40;86.00
360;DHT22;168;48.872;9.226;2023-02-18T15:31:56;14.50;85.60
360;DHT22;168;48.872;9.226;2023-02-18T15:34:34;14.40;85.50
360;DHT22;168;48.872;9.226;2023-02-18T15:37:05;14.40;86.20
360;DHT22;168;48.872;9.226;2023-02-18T15:39:33;14.30;86.70
360;DHT22;168;48.872;9.226;2023-02-18T15:42:08;14.20;87.20
360;DHT22;168;48.872;9.226;2023-02-18T15:44:37;14.20;87.50
360;DHT22;168;48.872;9.226;2023-02-18T15:47:09;14.20;87.50
360;DHT22;168;48.872;9.226;2023-02-18T15:49:38;14.10;87.70
360;DHT22;168;48.872;9.226;2023-02-18T15:52:07;14.10;88.00
360;DHT22;168;48.872;9.226;2023-02-18T15:54:37;14.10;88.20
360;DHT22;168;48.872;9.226;2023-02-18T15:57:08;14.10;88.30
360;DHT22;168;48.872;9.226;2023-02-18T15:59:44;14.00;88.60
360;DHT22;168;48.872;9.226;2023-02-18T16:02:17;14.00;88.70
360;DHT22;168;48.872;9.226;2023-02-18T16:04:54;14.00;89.20
360;DHT22;168;48.872;9.226;2023-02-18T16:07:28;13.90;89.30
360;DHT22;168;48.872;9.226;2023-02-18T16:10:13;13.90;89.40
360;DHT22;168;48.872;9.226;2023-02-18T16:12:44;13.90;89.20
360;DHT22;168;48.872;9.226;2023-02-18T16:15:15;13.90;89.30
360;DHT22;168;48.872;9.226;2023-02-18T16:17:44;13.90;88.80
360;DHT22;168;48.872;9.226;2023-02-18T16:20:24;13.90;88.80
360;DHT22;168;48.872;9.226;2023-02-18T16:22:57;14.00;88.60
360;DHT22;168;48.872;9.226;2023-02-18T16:25:33;14.00;88.30
360;DHT22;168;48.872;9.226;2023-02-18T16:28:06;14.00;88.50
360;DHT22;168;48.872;9.226;2023-02-18T16:30:34;14.00;88.40
360;DHT22;168;48.872;9.226;2023-02-18T16:33:02;13.90;88.50
360;DHT22;168;48.872;9.226;2023-02-18T16:35:30;13.90;88.80
360;DHT22;168;48.872;9.226;2023-02-18T16:37:59;13.90;88.60
360;DHT22;168;48.872;9.226;2023-02-18T16:40:29;14.00;88.40
360;DHT22;168;48.872;9.226;2023-02-18T16:42:58;13.90;88.60
360;DHT22;168;48.872;9.226;2023-02-18T16:45:32;13.90;88.60
360;DHT22;168;48.872;9.226;2023-02-18T16:48:00;13.90;88.80
360;DHT22;168;48.872;9.226;2023-02-18T16:50:29;13.80;88.90
360;DHT22;168;48.872;9.226;2023-02-18T16:52:59;13.80;89.10
360;DHT22;168;48.872;9.226;2023-02-18T16:55:28;13.80;89.40
360;DHT22;168;48.872;9.226;2023-02-18T16:57:55;13.70;89.60
360;DHT22;168;48.872;9.226;2023-02-18T17:00:23;13.70;89.70
360;DHT22;168;48.872;9.226;2023-02-18T17:02:54;13.70;89.90
360;DHT22;168;48.872;9.226;2023-02-18T17:05:24;13.70;90.00
360;DHT22;168;48.872;9.226;2023-02-18T17:07:52;13.70;90.10
360;DHT22;168;48.872;9.226;2023-02-18T17:10:21;13.60;90.50
360;DHT22;168;48.872;9.226;2023-02-18T17:12:48;13.60;90.50
360;DHT22;168;48.872;9.226;2023-02-18T17:15:25;13.60;90.60
360;DHT22;168;48.872;9.226;2023-02-18T17:17:53;13.60;90.70
360;DHT22;168;48.872;9.226;2023-02-18T17:20:23;13.60;90.90
360;DHT22;168;48.872;9.226;2023-02-18T17:22:50;13.50;91.00
360;DHT22;168;48.872;9.226;2023-02-18T17:25:22;13.40;91.50
360;DHT22;168;48.872;9.226;2023-02-18T17:27:49;13.40;91.60
360;DHT22;168;48.872;9.226;2023-02-18T17:30:17;13.50;91.80
360;DHT22;168;48.872;9.226;2023-02-18T17:32:44;13.50;91.70
360;DHT22;168;48.872;9.226;2023-02-18T17:35:17;13.40;92.00